createdAt,value
2018-06-20T00:00:30.818Z,19.30
2018-06-20T00:02:59.187Z,19.30
2018-06-20T00:05:27.530Z,19.30
2018-06-20T00:07:55.896Z,19.20
2018-06-20T00:10:24.235Z,19.20
2018-06-20T00:12:52.641Z,19.20
2018-06-20T00:15:21.004Z,19.20
2018-06-20T00:17:49.376Z,19.20
2018-06-20T00:20:17.722Z,19.20
2018-06-20T00:25:14.156Z,19.10
2018-06-20T00:27:42.531Z,19.20
2018-06-20T00:30:10.886Z,19.10
2018-06-20T00:32:39.245Z,19.10
2018-06-20T00:35:07.625Z,19.10
2018-06-20T00:37:35.977Z,19.20
2018-06-20T00:42:32.458Z,19.10
2018-06-20T00:45:00.822Z,19.10
2018-06-20T00:47:29.167Z,19.10
2018-06-20T00:49:57.792Z,19.10
2018-06-20T00:52:26.135Z,19.10
2018-06-20T00:54:54.550Z,19.10
2018-06-20T00:57:22.887Z,19.10
2018-06-20T00:59:51.244Z,19.10
2018-06-20T01:02:19.654Z,19.10
2018-06-20T01:04:48.227Z,19.10
2018-06-20T01:07:16.628Z,19.10
2018-06-20T01:12:13.088Z,19.10
2018-06-20T01:14:41.452Z,19.00
2018-06-20T01:17:10.606Z,19.00
2018-06-20T01:22:07.116Z,19.00
2018-06-20T01:27:03.567Z,19.00
2018-06-20T01:29:31.951Z,19.00
2018-06-20T01:36:56.923Z,19.00
2018-06-20T01:39:25.284Z,19.00
2018-06-20T01:41:53.620Z,19.00
2018-06-20T01:44:21.993Z,19.00
2018-06-20T01:46:50.339Z,19.00
2018-06-20T01:49:18.736Z,18.90
2018-06-20T01:51:47.541Z,18.90
2018-06-20T01:54:15.908Z,18.90
2018-06-20T01:56:44.264Z,18.90
2018-06-20T01:59:12.644Z,18.90
2018-06-20T02:01:40.995Z,18.90
2018-06-20T02:04:09.379Z,18.80
2018-06-20T02:06:37.707Z,18.80
2018-06-20T02:09:07.163Z,18.80
2018-06-20T02:11:35.548Z,18.80
2018-06-20T02:14:03.915Z,18.80
2018-06-20T02:16:32.255Z,18.70
2018-06-20T02:21:28.716Z,18.70
2018-06-20T02:23:57.117Z,18.70
2018-06-20T02:26:25.459Z,18.70
2018-06-20T02:28:53.813Z,18.70
2018-06-20T02:31:22.180Z,18.70
2018-06-20T02:33:50.517Z,18.60
2018-06-20T02:36:24.276Z,18.60
2018-06-20T02:38:52.607Z,18.60
2018-06-20T02:41:20.987Z,18.60
2018-06-20T02:46:17.432Z,18.60
2018-06-20T02:48:46.053Z,18.60
2018-06-20T02:51:14.428Z,18.60
2018-06-20T02:53:42.764Z,18.50
2018-06-20T02:56:11.199Z,18.50
2018-06-20T02:58:39.560Z,18.50
2018-06-20T03:01:08.160Z,18.40
2018-06-20T03:03:36.545Z,18.40
2018-06-20T03:06:04.964Z,18.40
2018-06-20T03:08:33.318Z,18.40
2018-06-20T03:11:01.725Z,18.40
2018-06-20T03:13:30.092Z,18.40
2018-06-20T03:15:58.509Z,18.40
2018-06-20T03:20:54.952Z,18.40
2018-06-20T03:23:23.290Z,18.40
2018-06-20T03:25:51.651Z,18.40
2018-06-20T03:28:19.989Z,18.40
2018-06-20T03:30:48.357Z,18.40
2018-06-20T03:33:16.700Z,18.40
2018-06-20T03:35:45.056Z,18.40
2018-06-20T03:38:13.396Z,18.40
2018-06-20T03:40:41.760Z,18.40
2018-06-20T03:43:10.090Z,18.50
2018-06-20T03:45:38.446Z,18.50
2018-06-20T03:48:06.768Z,18.50
2018-06-20T03:50:35.133Z,18.50
2018-06-20T03:53:03.464Z,18.50
2018-06-20T03:55:32.100Z,18.50
2018-06-20T03:58:00.436Z,18.50
2018-06-20T04:00:28.804Z,18.50
2018-06-20T04:02:57.166Z,18.60
2018-06-20T04:05:28.071Z,18.60
2018-06-20T04:07:56.399Z,18.60
2018-06-20T04:10:24.771Z,18.60
2018-06-20T04:12:53.144Z,18.60
2018-06-20T04:15:21.509Z,18.60
2018-06-20T04:17:49.847Z,18.60
2018-06-20T04:20:18.208Z,18.50
2018-06-20T04:22:46.548Z,18.50
2018-06-20T04:25:14.884Z,18.50
2018-06-20T04:27:43.247Z,18.50
2018-06-20T04:30:11.575Z,18.60
2018-06-20T04:32:39.952Z,18.60
2018-06-20T04:35:08.483Z,18.70
2018-06-20T04:37:36.848Z,18.70
2018-06-20T04:40:05.183Z,18.70
2018-06-20T04:42:33.888Z,18.80
2018-06-20T04:45:02.528Z,18.80
2018-06-20T04:47:30.895Z,18.80
2018-06-20T04:49:59.236Z,18.90
2018-06-20T04:52:27.595Z,18.90
2018-06-20T04:54:55.927Z,18.90
2018-06-20T04:57:24.307Z,19.00
2018-06-20T04:59:52.645Z,19.00
2018-06-20T05:02:21.080Z,19.00
2018-06-20T05:04:49.412Z,19.10
2018-06-20T05:07:17.781Z,19.10
2018-06-20T05:09:46.112Z,19.10
2018-06-20T05:12:14.509Z,19.10
2018-06-20T05:14:42.839Z,19.10
2018-06-20T05:17:11.208Z,19.20
2018-06-20T05:19:39.543Z,19.20
2018-06-20T05:24:35.976Z,19.30
2018-06-20T05:27:04.400Z,19.30
2018-06-20T05:29:32.752Z,19.30
2018-06-20T05:34:29.411Z,19.40
2018-06-20T05:41:55.808Z,19.60
2018-06-20T05:44:25.552Z,19.60
2018-06-20T05:46:55.295Z,19.70
2018-06-20T05:49:24.725Z,19.70
2018-06-20T05:51:53.156Z,19.70
2018-06-20T05:54:23.650Z,19.80
2018-06-20T05:56:52.117Z,19.80
2018-06-20T05:59:20.469Z,19.80
2018-06-20T06:01:48.826Z,19.90
2018-06-20T06:04:17.160Z,19.90
2018-06-20T06:06:45.539Z,19.90
2018-06-20T06:09:13.880Z,19.90
2018-06-20T06:11:42.276Z,20.00
2018-06-20T06:16:38.703Z,20.10
2018-06-20T06:19:07.037Z,20.10
2018-06-20T06:21:35.379Z,20.10
2018-06-20T06:31:27.997Z,20.30
2018-06-20T06:33:56.658Z,20.30
2018-06-20T06:36:25.043Z,20.30
2018-06-20T06:41:21.496Z,20.40
2018-06-20T06:43:49.876Z,20.40
2018-06-20T06:51:14.408Z,20.50
2018-06-20T06:56:10.853Z,20.50
2018-06-20T07:01:07.295Z,20.50
2018-06-20T07:03:35.671Z,20.60
2018-06-20T07:06:04.032Z,20.60
2018-06-20T07:08:32.410Z,20.60
2018-06-20T07:11:00.820Z,20.60
2018-06-20T07:13:29.193Z,20.60
2018-06-20T07:15:57.538Z,20.60
2018-06-20T07:18:25.918Z,20.60
2018-06-20T07:20:54.256Z,20.60
2018-06-20T07:23:22.633Z,20.60
2018-06-20T07:28:19.300Z,20.80
2018-06-20T07:30:47.660Z,20.80
2018-06-20T07:35:44.228Z,21.00
2018-06-20T07:40:40.655Z,21.00
2018-06-20T07:43:09.032Z,21.10
2018-06-20T07:45:37.372Z,21.10
2018-06-20T07:48:05.732Z,21.20
2018-06-20T07:50:34.079Z,21.30
2018-06-20T07:53:02.552Z,21.40
2018-06-20T07:55:30.945Z,21.50
2018-06-20T08:00:32.712Z,21.80
2018-06-20T08:03:12.136Z,21.80
2018-06-20T08:05:45.771Z,21.90
2018-06-20T08:10:53.095Z,22.00
2018-06-20T08:13:26.740Z,22.10
2018-06-20T08:16:00.380Z,22.20
2018-06-20T08:21:02.273Z,22.20
2018-06-20T08:23:30.630Z,22.30
2018-06-20T08:25:59.009Z,22.40
2018-06-20T08:28:27.371Z,22.60
2018-06-20T08:30:55.799Z,22.70
2018-06-20T08:33:24.355Z,22.70
2018-06-20T08:38:20.807Z,22.90
2018-06-20T08:43:17.286Z,23.00
2018-06-20T08:45:45.659Z,22.90
2018-06-20T08:48:13.994Z,22.90
2018-06-20T08:50:42.364Z,22.90
2018-06-20T08:53:10.744Z,22.90
2018-06-20T08:55:39.080Z,22.90
2018-06-20T08:58:07.416Z,22.90
2018-06-20T09:00:41.168Z,23.00
2018-06-20T09:03:09.503Z,23.00
2018-06-20T09:05:43.407Z,22.90
2018-06-20T09:09:20.080Z,22.90
2018-06-20T09:11:53.807Z,22.70
2018-06-20T09:14:22.203Z,22.60
2018-06-20T09:16:56.015Z,22.60
2018-06-20T09:19:29.566Z,22.60
2018-06-20T09:21:57.925Z,22.70
2018-06-20T09:24:26.481Z,22.90
2018-06-20T09:26:54.824Z,23.00
2018-06-20T09:29:23.175Z,23.10
2018-06-20T09:31:51.564Z,23.10
2018-06-20T09:34:19.911Z,23.20
2018-06-20T09:36:48.296Z,23.30
2018-06-20T09:39:16.652Z,23.40
2018-06-20T09:44:13.112Z,23.40
2018-06-20T09:46:41.481Z,23.50
2018-06-20T09:54:06.316Z,23.60
2018-06-20T09:59:08.199Z,23.60
2018-06-20T10:04:15.570Z,23.70
2018-06-20T10:06:49.528Z,23.80
2018-06-20T10:10:25.854Z,23.90
2018-06-20T10:12:59.672Z,24.00
2018-06-20T10:15:28.011Z,24.00
2018-06-20T10:17:56.372Z,24.00
2018-06-20T10:20:26.625Z,24.00
2018-06-20T10:22:55.879Z,23.90
2018-06-20T10:25:24.235Z,23.80
2018-06-20T10:27:52.600Z,23.80
2018-06-20T10:30:20.967Z,24.00
2018-06-20T10:32:49.503Z,24.10
2018-06-20T10:35:17.841Z,24.30
2018-06-20T10:37:46.204Z,24.30
2018-06-20T10:40:14.576Z,24.50
2018-06-20T10:42:42.992Z,24.70
2018-06-20T10:45:16.707Z,24.80
2018-06-20T10:47:46.660Z,24.90
2018-06-20T10:50:15.034Z,24.90
2018-06-20T10:52:43.396Z,24.90
2018-06-20T10:55:14.103Z,24.90
2018-06-20T10:57:47.812Z,24.90
2018-06-20T11:00:21.560Z,25.20
2018-06-20T11:02:55.359Z,25.60
2018-06-20T11:05:29.015Z,25.80
2018-06-20T11:08:02.643Z,25.90
2018-06-20T11:13:06.928Z,25.90
2018-06-20T11:15:35.550Z,25.80
2018-06-20T11:18:04.171Z,25.60
2018-06-20T11:20:37.922Z,25.60
2018-06-20T11:23:06.285Z,25.60
2018-06-20T11:25:34.611Z,25.60
2018-06-20T11:30:35.735Z,26.00
2018-06-20T11:33:04.112Z,26.40
2018-06-20T11:35:32.435Z,26.80
2018-06-20T11:40:28.876Z,27.30
2018-06-20T11:42:57.280Z,27.20
2018-06-20T11:45:29.852Z,27.00
2018-06-20T11:47:58.211Z,26.80
2018-06-20T11:50:26.539Z,26.70
2018-06-20T11:53:00.652Z,27.00
2018-06-20T11:55:34.304Z,27.40
2018-06-20T11:58:08.312Z,27.40
2018-06-20T12:00:41.923Z,27.60
2018-06-20T12:03:15.751Z,27.70
2018-06-20T12:05:49.289Z,27.90
2018-06-20T12:08:23.108Z,28.00
2018-06-20T12:10:56.748Z,28.00
2018-06-20T12:16:04.100Z,27.80
2018-06-20T12:18:37.828Z,28.00
2018-06-20T12:21:11.392Z,27.90
2018-06-20T12:23:45.064Z,27.70
2018-06-20T12:28:52.271Z,27.90
2018-06-20T12:33:59.734Z,27.70
2018-06-20T12:36:33.586Z,27.90
2018-06-20T12:39:01.180Z,27.90
2018-06-20T12:42:38.448Z,27.90
2018-06-20T12:45:09.439Z,27.90
2018-06-20T12:47:48.983Z,28.10
2018-06-20T12:50:24.188Z,28.00
2018-06-20T12:52:52.748Z,27.80
2018-06-20T12:57:49.419Z,27.70
2018-06-20T13:02:46.169Z,28.30
2018-06-20T13:07:42.613Z,29.10
2018-06-20T13:10:11.008Z,29.50
2018-06-20T13:15:07.573Z,29.50
2018-06-20T13:17:35.935Z,29.40
2018-06-20T13:22:32.455Z,29.80
2018-06-20T13:25:00.840Z,29.90
2018-06-20T13:27:34.544Z,30.00
2018-06-20T13:30:09.535Z,30.10
2018-06-20T13:32:43.390Z,30.10
2018-06-20T13:35:17.044Z,30.20
2018-06-20T13:37:50.808Z,30.20
2018-06-20T13:40:24.456Z,30.00
2018-06-20T13:42:58.101Z,30.00
2018-06-20T13:45:31.899Z,30.10
2018-06-20T13:53:02.134Z,30.30
2018-06-20T13:55:30.520Z,30.50
2018-06-20T13:57:58.887Z,30.70
2018-06-20T14:00:27.467Z,30.50
2018-06-20T14:02:56.128Z,30.40
2018-06-20T14:07:52.624Z,30.60
2018-06-20T14:10:21.006Z,30.60
2018-06-20T14:12:49.392Z,30.80
2018-06-20T14:15:17.773Z,30.90
2018-06-20T14:17:46.124Z,31.10
2018-06-20T14:20:19.941Z,31.00
2018-06-20T14:22:48.295Z,31.00
2018-06-20T14:25:16.676Z,30.90
2018-06-20T14:27:45.032Z,31.20
2018-06-20T14:30:17.625Z,31.30
2018-06-20T14:35:25.089Z,31.60
2018-06-20T14:37:58.895Z,31.30
2018-06-20T14:40:32.585Z,31.00
2018-06-20T14:43:02.660Z,30.60
2018-06-20T14:48:04.733Z,30.10
2018-06-20T14:50:33.112Z,30.30
2018-06-20T14:53:01.461Z,30.70
2018-06-20T14:55:29.834Z,31.00
2018-06-20T14:57:58.183Z,31.30
2018-06-20T15:00:26.556Z,31.30
2018-06-20T15:02:54.920Z,31.20
2018-06-20T15:05:23.263Z,31.30
2018-06-20T15:07:52.430Z,31.60
2018-06-20T15:10:21.076Z,31.90
2018-06-20T15:12:49.492Z,32.00
2018-06-20T15:15:17.843Z,32.10
2018-06-20T15:20:14.341Z,32.20
2018-06-20T15:22:46.595Z,32.00
2018-06-20T15:25:15.863Z,31.80
2018-06-20T15:27:49.738Z,31.80
2018-06-20T15:30:23.400Z,31.90
2018-06-20T15:32:57.143Z,31.90
2018-06-20T15:36:29.518Z,31.80
2018-06-20T15:38:57.867Z,31.60
2018-06-20T15:41:26.230Z,31.50
2018-06-20T15:46:22.704Z,31.70
2018-06-20T15:48:51.089Z,31.50
2018-06-20T15:51:19.441Z,31.50
2018-06-20T15:53:47.820Z,31.80
2018-06-20T16:01:12.347Z,31.90
2018-06-20T16:03:40.720Z,31.90
2018-06-20T16:08:42.628Z,31.80
2018-06-20T16:11:11.020Z,31.80
2018-06-20T16:13:39.395Z,31.90
2018-06-20T16:16:10.010Z,31.90
2018-06-20T16:18:38.731Z,32.10
2018-06-20T16:21:12.582Z,32.10
2018-06-20T16:31:21.655Z,32.60
2018-06-20T16:33:50.095Z,32.60
2018-06-20T16:36:18.459Z,32.70
2018-06-20T16:38:46.828Z,32.70
2018-06-20T16:41:15.285Z,32.80
2018-06-20T16:43:43.770Z,32.60
2018-06-20T16:46:12.106Z,32.30
2018-06-20T16:48:40.476Z,32.00
2018-06-20T16:51:08.827Z,32.00
2018-06-20T16:53:37.382Z,32.10
2018-06-20T16:56:06.085Z,32.00
2018-06-20T16:58:34.459Z,31.90
2018-06-20T17:01:08.281Z,32.10
2018-06-20T17:03:36.727Z,32.30
2018-06-20T17:06:05.101Z,32.50
2018-06-20T17:08:33.476Z,32.60
2018-06-20T17:11:01.885Z,32.60
2018-06-20T17:16:09.303Z,32.50
2018-06-20T17:21:16.437Z,32.90
2018-06-20T17:23:50.131Z,33.10
2018-06-20T17:26:18.477Z,33.30
2018-06-20T17:31:14.907Z,33.30
2018-06-20T17:33:45.272Z,33.40
2018-06-20T17:36:15.615Z,33.30
2018-06-20T17:38:44.032Z,33.40
2018-06-20T17:41:12.363Z,33.70
2018-06-20T17:43:40.736Z,33.90
2018-06-20T17:46:09.100Z,33.90
2018-06-20T17:51:05.542Z,33.60
2018-06-20T17:53:33.916Z,33.50
2018-06-20T17:56:04.371Z,33.50
2018-06-20T17:58:33.276Z,33.80
2018-06-20T18:01:07.142Z,34.10
2018-06-20T18:03:35.539Z,34.20
2018-06-20T18:06:09.371Z,34.40
2018-06-20T18:08:43.060Z,34.40
2018-06-20T18:11:15.827Z,34.10
2018-06-20T18:13:49.660Z,33.60
2018-06-20T18:16:23.298Z,33.00
2018-06-20T18:18:51.684Z,32.50
2018-06-20T18:21:20.032Z,32.10
2018-06-20T18:23:48.476Z,31.60
2018-06-20T18:26:16.949Z,31.50
2018-06-20T18:28:45.344Z,31.50
2018-06-20T18:33:41.980Z,30.70
2018-06-20T18:36:10.405Z,30.30
2018-06-20T18:38:38.732Z,30.00
2018-06-20T18:41:07.178Z,29.70
2018-06-20T18:43:35.472Z,29.50
2018-06-20T18:46:03.901Z,29.40
2018-06-20T18:48:32.238Z,29.30
2018-06-20T18:51:00.608Z,29.20
2018-06-20T18:53:28.942Z,29.00
2018-06-20T18:58:30.692Z,28.60
2018-06-20T19:01:04.468Z,28.50
2018-06-20T19:03:39.132Z,28.40
2018-06-20T19:06:15.543Z,28.40
2018-06-20T19:08:51.440Z,28.30
2018-06-20T19:11:20.787Z,28.20
2018-06-20T19:13:49.260Z,28.20
2018-06-20T19:16:17.656Z,28.10
2018-06-20T19:18:46.030Z,28.10
2018-06-20T19:21:14.427Z,28.10
2018-06-20T19:23:42.769Z,27.90
2018-06-20T19:26:11.220Z,27.70
2018-06-20T19:28:39.573Z,27.70
2018-06-20T19:31:07.979Z,27.70
2018-06-20T19:33:36.359Z,27.60
2018-06-20T19:36:04.749Z,27.60
2018-06-20T19:38:33.136Z,27.60
2018-06-20T19:41:01.538Z,27.50
2018-06-20T19:45:58.076Z,27.50
2018-06-20T19:48:26.446Z,27.40
2018-06-20T19:50:54.836Z,27.30
2018-06-20T19:53:23.185Z,27.20
2018-06-20T19:55:51.640Z,27.10
2018-06-20T19:58:20.046Z,27.00
2018-06-20T20:00:48.416Z,26.90
2018-06-20T20:03:16.823Z,26.80
2018-06-20T20:05:45.192Z,26.70
2018-06-20T20:08:13.599Z,26.60
2018-06-20T20:10:41.956Z,26.50
2018-06-20T20:13:10.413Z,26.40
2018-06-20T20:15:38.782Z,26.30
2018-06-20T20:18:07.171Z,26.20
2018-06-20T20:20:35.557Z,26.10
2018-06-20T20:23:03.933Z,26.10
2018-06-20T20:25:32.346Z,26.00
2018-06-20T20:28:00.807Z,25.90
2018-06-20T20:30:29.188Z,25.90
2018-06-20T20:32:57.576Z,25.90
2018-06-20T20:35:25.953Z,25.70
2018-06-20T20:37:54.339Z,25.60
2018-06-20T20:40:22.732Z,25.40
2018-06-20T20:42:51.144Z,25.20
2018-06-20T20:45:19.499Z,25.10
2018-06-20T20:47:47.896Z,24.90
2018-06-20T20:50:16.292Z,24.80
2018-06-20T20:52:44.907Z,24.70
2018-06-20T20:55:13.386Z,24.60
2018-06-20T20:57:41.786Z,24.60
2018-06-20T21:00:10.153Z,24.50
2018-06-20T21:02:38.585Z,24.40
2018-06-20T21:05:07.001Z,24.40
2018-06-20T21:07:35.403Z,24.30
2018-06-20T21:10:03.849Z,24.20
2018-06-20T21:12:32.234Z,24.20
2018-06-20T21:15:00.604Z,24.20
2018-06-20T21:17:28.961Z,24.10
2018-06-20T21:19:57.355Z,24.00
2018-06-20T21:22:25.715Z,24.00
2018-06-20T21:24:54.096Z,23.80
2018-06-20T21:27:22.451Z,23.80
2018-06-20T21:29:50.860Z,23.80
2018-06-20T21:34:47.379Z,23.70
2018-06-20T21:37:16.623Z,23.60
2018-06-20T21:42:13.124Z,23.60
2018-06-20T21:44:41.511Z,23.50
2018-06-20T21:47:14.199Z,23.50
2018-06-20T21:49:43.404Z,23.40
2018-06-20T21:52:11.764Z,23.40
2018-06-20T21:54:40.175Z,23.30
2018-06-20T21:57:08.553Z,23.20
2018-06-20T22:02:05.051Z,22.90
2018-06-20T22:04:33.427Z,22.80
2018-06-20T22:07:01.780Z,22.70
2018-06-20T22:09:30.191Z,22.60
2018-06-20T22:11:58.597Z,22.50
2018-06-20T22:14:27.024Z,22.50
2018-06-20T22:19:23.530Z,22.40
2018-06-20T22:21:51.904Z,22.30
2018-06-20T22:29:16.528Z,22.20
2018-06-20T22:31:44.872Z,22.20
2018-06-20T22:34:13.284Z,22.10
2018-06-20T22:36:41.743Z,22.00
2018-06-20T22:39:10.855Z,21.90
2018-06-20T22:41:39.211Z,21.80
2018-06-20T22:44:07.812Z,21.80
2018-06-20T22:46:36.185Z,21.70
2018-06-20T22:49:04.626Z,21.60
2018-06-20T22:51:33.009Z,21.60
2018-06-20T22:54:01.391Z,21.50
2018-06-20T22:56:29.957Z,21.50
2018-06-20T22:58:58.440Z,21.40
2018-06-20T23:01:26.852Z,21.40
2018-06-20T23:03:55.664Z,21.30
2018-06-20T23:06:24.361Z,21.20
2018-06-20T23:08:52.750Z,21.20
2018-06-20T23:11:21.431Z,21.10
2018-06-20T23:13:50.180Z,21.10
2018-06-20T23:16:18.596Z,21.10
2018-06-20T23:18:47.011Z,21.00
2018-06-20T23:21:15.661Z,21.00
2018-06-20T23:23:44.118Z,21.00
2018-06-20T23:28:40.660Z,20.90
2018-06-20T23:31:09.120Z,20.80
2018-06-20T23:33:37.491Z,20.80
2018-06-20T23:36:05.933Z,20.70
2018-06-20T23:38:34.341Z,20.70
2018-06-20T23:41:02.756Z,20.70
2018-06-20T23:43:31.133Z,20.60
2018-06-20T23:45:59.555Z,20.50
2018-06-20T23:48:27.964Z,20.40
2018-06-20T23:50:56.392Z,20.40
2018-06-20T23:53:24.783Z,20.30
2018-06-20T23:55:53.204Z,20.40
2018-06-20T23:58:21.601Z,20.40
